sensor_id;sensor_type;location;lat;lon;timestamp;temperature;humidity
60309;DHT22;50313;52.894;6.492;2023-03-29T00:01:06;5.50;99.90
60309;DHT22;50313;52.894;6.492;2023-03-29T00:03:35;5.50;99.90
60309;DHT22;50313;52.894;6.492;2023-03-29T00:06:35;5.50;99.90
60309;DHT22;50313;52.894;6.492;2023-03-29T00:09:01;5.50;99.90
60309;DHT22;50313;52.894;6.492;2023-03-29T00:11:41;5.50;99.90
60309;DHT22;50313;52.894;6.492;2023-03-29T00:14:09;5.40;99.90
60309;DHT22;50313;52.894;6.492;2023-03-29T00:16:53;5.60;99.90
60309;DHT22;50313;52.894;6.492;2023-03-29T00:19:19;5.40;99.90
60309;DHT22;50313;52.894;6.492;2023-03-29T00:21:47;5.50;99.90
60309;DHT22;50313;52.894;6.492;2023-03-29T00:24:21;5.40;99.90
60309;DHT22;50313;52.894;6.492;2023-03-29T00:26:54;5.50;99.90
60309;DHT22;50313;52.894;6.492;2023-03-29T00:29:26;5.50;99.90
60309;DHT22;50313;52.894;6.492;2023-03-29T00:31:55;5.50;99.90
60309;DHT22;50313;52.894;6.492;2023-03-29T00:34:45;5.40;99.90
60309;DHT22;50313;52.894;6.492;2023-03-29T00:37:18;5.50;99.90
60309;DHT22;50313;52.894;6.492;2023-03-29T00:39:55;5.40;99.90
60309;DHT22;50313;52.894;6.492;2023-03-29T00:42:22;5.40;99.90
60309;DHT22;50313;52.894;6.492;2023-03-29T00:44:59;5.40;99.90
60309;DHT22;50313;52.894;6.492;2023-03-29T00:48:11;5.30;99.90
60309;DHT22;50313;52.894;6.492;2023-03-29T00:53:35;5.40;99.90
60309;DHT22;50313;52.894;6.492;2023-03-29T00:56:21;5.40;99.90
60309;DHT22;50313;52.894;6.492;2023-03-29T01:02:05;5.50;99.90
60309;DHT22;50313;52.894;6.492;2023-03-29T01:04:54;5.40;99.90
60309;DHT22;50313;52.894;6.492;2023-03-29T01:07:39;5.40;99.90
60309;DHT22;50313;52.894;6.492;2023-03-29T01:10:34;5.40;99.90
60309;DHT22;50313;52.894;6.492;2023-03-29T01:16:49;5.40;99.90
60309;DHT22;50313;52.894;6.492;2023-03-29T01:19:18;5.30;99.90
60309;DHT22;50313;52.894;6.492;2023-03-29T01:22:28;5.30;99.90
60309;DHT22;50313;52.894;6.492;2023-03-29T01:25:22;5.30;99.90
60309;DHT22;50313;52.894;6.492;2023-03-29T01:31:06;5.30;99.90
60309;DHT22;50313;52.894;6.492;2023-03-29T01:33:39;5.20;99.90
60309;DHT22;50313;52.894;6.492;2023-03-29T01:39:15;5.30;99.90
60309;DHT22;50313;52.894;6.492;2023-03-29T01:56:26;5.30;99.90
60309;DHT22;50313;52.894;6.492;2023-03-29T02:09:40;5.30;99.90
60309;DHT22;50313;52.894;6.492;2023-03-29T02:12:14;5.30;99.90
60309;DHT22;50313;52.894;6.492;2023-03-29T02:15:10;5.40;99.90
60309;DHT22;50313;52.894;6.492;2023-03-29T02:17:46;5.40;99.90
60309;DHT22;50313;52.894;6.492;2023-03-29T02:22:56;5.40;99.90
60309;DHT22;50313;52.894;6.492;2023-03-29T02:25:35;5.40;99.90
60309;DHT22;50313;52.894;6.492;2023-03-29T02:28:05;5.40;99.90
60309;DHT22;50313;52.894;6.492;2023-03-29T02:30:55;5.40;99.90
60309;DHT22;50313;52.894;6.492;2023-03-29T02:33:33;5.40;99.90
60309;DHT22;50313;52.894;6.492;2023-03-29T02:36:16;5.40;99.90
60309;DHT22;50313;52.894;6.492;2023-03-29T02:38:45;5.40;99.90
60309;DHT22;50313;52.894;6.492;2023-03-29T02:41:15;5.40;99.90
60309;DHT22;50313;52.894;6.492;2023-03-29T02:44:04;5.50;99.90
60309;DHT22;50313;52.894;6.492;2023-03-29T02:46:32;5.40;99.90
60309;DHT22;50313;52.894;6.492;2023-03-29T02:49:02;5.40;99.90
60309;DHT22;50313;52.894;6.492;2023-03-29T02:54:43;5.40;99.90
60309;DHT22;50313;52.894;6.492;2023-03-29T02:57:13;5.40;99.90
60309;DHT22;50313;52.894;6.492;2023-03-29T02:59:39;5.40;99.90
60309;DHT22;50313;52.894;6.492;2023-03-29T03:02:08;5.40;99.90
60309;DHT22;50313;52.894;6.492;2023-03-29T03:04:52;5.40;99.90
60309;DHT22;50313;52.894;6.492;2023-03-29T03:07:18;5.50;99.90
60309;DHT22;50313;52.894;6.492;2023-03-29T03:09:57;5.50;99.90
60309;DHT22;50313;52.894;6.492;2023-03-29T03:12:23;5.50;99.90
60309;DHT22;50313;52.894;6.492;2023-03-29T03:14:54;5.50;99.90
60309;DHT22;50313;52.894;6.492;2023-03-29T03:17:33;5.50;99.90
60309;DHT22;50313;52.894;6.492;2023-03-29T03:20:09;5.50;99.90
60309;DHT22;50313;52.894;6.492;2023-03-29T03:23:04;5.50;99.90
60309;DHT22;50313;52.894;6.492;2023-03-29T03:25:34;5.50;99.90
60309;DHT22;50313;52.894;6.492;2023-03-29T03:28:00;5.50;99.90
60309;DHT22;50313;52.894;6.492;2023-03-29T03:30:30;5.50;99.90
60309;DHT22;50313;52.894;6.492;2023-03-29T03:33:01;5.50;99.90
60309;DHT22;50313;52.894;6.492;2023-03-29T03:35:37;5.50;99.90
60309;DHT22;50313;52.894;6.492;2023-03-29T03:38:06;5.50;99.90
60309;DHT22;50313;52.894;6.492;2023-03-29T03:40:34;5.50;99.90
60309;DHT22;50313;52.894;6.492;2023-03-29T03:43:06;5.50;99.90
60309;DHT22;50313;52.894;6.492;2023-03-29T03:45:34;5.50;99.90
60309;DHT22;50313;52.894;6.492;2023-03-29T03:48:15;5.50;99.90
60309;DHT22;50313;52.894;6.492;2023-03-29T03:50:54;5.50;99.90
60309;DHT22;50313;52.894;6.492;2023-03-29T03:53:22;5.60;99.90
60309;DHT22;50313;52.894;6.492;2023-03-29T03:55:55;5.50;99.90
60309;DHT22;50313;52.894;6.492;2023-03-29T03:58:27;5.60;99.90
60309;DHT22;50313;52.894;6.492;2023-03-29T04:00:57;5.60;99.90
60309;DHT22;50313;52.894;6.492;2023-03-29T04:03:51;5.60;99.90
60309;DHT22;50313;52.894;6.492;2023-03-29T04:06:23;5.50;99.90
60309;DHT22;50313;52.894;6.492;2023-03-29T04:08:52;5.60;99.90
60309;DHT22;50313;52.894;6.492;2023-03-29T04:14:10;5.60;99.90
60309;DHT22;50313;52.894;6.492;2023-03-29T04:16:36;5.60;99.90
60309;DHT22;50313;52.894;6.492;2023-03-29T04:19:04;5.60;99.90
60309;DHT22;50313;52.894;6.492;2023-03-29T04:21:29;5.60;99.90
60309;DHT22;50313;52.894;6.492;2023-03-29T04:24:04;5.60;99.90
60309;DHT22;50313;52.894;6.492;2023-03-29T04:26:42;5.70;99.90
60309;DHT22;50313;52.894;6.492;2023-03-29T04:29:16;5.60;99.90
60309;DHT22;50313;52.894;6.492;2023-03-29T04:31:45;5.70;99.90
60309;DHT22;50313;52.894;6.492;2023-03-29T04:34:11;5.70;99.90
60309;DHT22;50313;52.894;6.492;2023-03-29T04:36:54;5.70;99.90
60309;DHT22;50313;52.894;6.492;2023-03-29T04:39:32;5.70;99.90
60309;DHT22;50313;52.894;6.492;2023-03-29T04:42:03;5.60;99.90
60309;DHT22;50313;52.894;6.492;2023-03-29T04:44:36;5.60;99.90
60309;DHT22;50313;52.894;6.492;2023-03-29T04:50:08;5.70;99.90
60309;DHT22;50313;52.894;6.492;2023-03-29T04:53:11;5.70;99.90
60309;DHT22;50313;52.894;6.492;2023-03-29T04:55:40;5.70;99.90
60309;DHT22;50313;52.894;6.492;2023-03-29T04:58:17;5.70;99.90
60309;DHT22;50313;52.894;6.492;2023-03-29T05:00:50;5.80;99.90
60309;DHT22;50313;52.894;6.492;2023-03-29T05:03:28;5.70;99.90
60309;DHT22;50313;52.894;6.492;2023-03-29T05:06:17;5.70;99.90
60309;DHT22;50313;52.894;6.492;2023-03-29T05:08:54;5.70;99.90
60309;DHT22;50313;52.894;6.492;2023-03-29T05:14:31;5.80;99.90
60309;DHT22;50313;52.894;6.492;2023-03-29T05:17:03;5.80;99.90
60309;DHT22;50313;52.894;6.492;2023-03-29T05:19:36;5.80;99.90
60309;DHT22;50313;52.894;6.492;2023-03-29T05:22:15;5.80;99.90
60309;DHT22;50313;52.894;6.492;2023-03-29T05:24:46;5.80;99.90
60309;DHT22;50313;52.894;6.492;2023-03-29T05:27:21;5.80;99.90
60309;DHT22;50313;52.894;6.492;2023-03-29T05:33:21;5.70;99.90
60309;DHT22;50313;52.894;6.492;2023-03-29T05:36:01;5.70;99.90
60309;DHT22;50313;52.894;6.492;2023-03-29T05:38:36;5.70;99.90
60309;DHT22;50313;52.894;6.492;2023-03-29T05:41:28;5.70;99.90
60309;DHT22;50313;52.894;6.492;2023-03-29T05:44:37;5.70;99.90
60309;DHT22;50313;52.894;6.492;2023-03-29T05:47:08;5.70;99.90
60309;DHT22;50313;52.894;6.492;2023-03-29T05:52:40;5.70;99.90
60309;DHT22;50313;52.894;6.492;2023-03-29T05:55:50;5.70;99.90
60309;DHT22;50313;52.894;6.492;2023-03-29T05:59:14;5.60;99.90
60309;DHT22;50313;52.894;6.492;2023-03-29T06:02:13;5.60;99.90
60309;DHT22;50313;52.894;6.492;2023-03-29T06:04:58;5.60;99.90
60309;DHT22;50313;52.894;6.492;2023-03-29T06:11:01;5.70;99.90
60309;DHT22;50313;52.894;6.492;2023-03-29T06:13:34;5.70;99.90
60309;DHT22;50313;52.894;6.492;2023-03-29T06:16:11;5.80;99.90
60309;DHT22;50313;52.894;6.492;2023-03-29T06:18:37;5.80;99.90
60309;DHT22;50313;52.894;6.492;2023-03-29T06:25:09;5.80;99.90
60309;DHT22;50313;52.894;6.492;2023-03-29T06:28:02;5.80;99.90
60309;DHT22;50313;52.894;6.492;2023-03-29T06:31:15;5.90;99.90
60309;DHT22;50313;52.894;6.492;2023-03-29T06:34:32;5.90;99.90
60309;DHT22;50313;52.894;6.492;2023-03-29T06:37:19;5.90;99.90
60309;DHT22;50313;52.894;6.492;2023-03-29T06:43:11;6.00;99.90
60309;DHT22;50313;52.894;6.492;2023-03-29T06:46:03;6.00;99.90
60309;DHT22;50313;52.894;6.492;2023-03-29T06:48:39;6.00;99.90
60309;DHT22;50313;52.894;6.492;2023-03-29T06:51:15;6.10;99.90
60309;DHT22;50313;52.894;6.492;2023-03-29T06:54:07;6.10;99.90
60309;DHT22;50313;52.894;6.492;2023-03-29T07:00:23;6.10;99.90
60309;DHT22;50313;52.894;6.492;2023-03-29T07:03:30;6.20;99.90
60309;DHT22;50313;52.894;6.492;2023-03-29T07:06:32;6.30;99.90
60309;DHT22;50313;52.894;6.492;2023-03-29T07:09:09;6.20;99.90
60309;DHT22;50313;52.894;6.492;2023-03-29T07:11:45;6.30;99.90
60309;DHT22;50313;52.894;6.492;2023-03-29T07:14:41;6.30;99.90
60309;DHT22;50313;52.894;6.492;2023-03-29T07:17:17;6.30;99.90
60309;DHT22;50313;52.894;6.492;2023-03-29T07:19:44;6.40;99.90
60309;DHT22;50313;52.894;6.492;2023-03-29T07:22:16;6.40;99.90
60309;DHT22;50313;52.894;6.492;2023-03-29T07:25:11;6.50;99.90
60309;DHT22;50313;52.894;6.492;2023-03-29T07:28:09;6.50;99.90
60309;DHT22;50313;52.894;6.492;2023-03-29T07:31:16;6.60;99.90
60309;DHT22;50313;52.894;6.492;2023-03-29T07:33:50;6.60;99.90
60309;DHT22;50313;52.894;6.492;2023-03-29T07:36:46;6.60;99.90
60309;DHT22;50313;52.894;6.492;2023-03-29T07:39:26;6.60;99.90
60309;DHT22;50313;52.894;6.492;2023-03-29T07:42:18;6.70;99.90
60309;DHT22;50313;52.894;6.492;2023-03-29T07:44:58;6.70;99.90
60309;DHT22;50313;52.894;6.492;2023-03-29T07:48:15;6.70;99.90
60309;DHT22;50313;52.894;6.492;2023-03-29T07:53:38;6.80;99.90
60309;DHT22;50313;52.894;6.492;2023-03-29T07:56:33;6.80;99.90
60309;DHT22;50313;52.894;6.492;2023-03-29T07:59:02;6.80;99.90
60309;DHT22;50313;52.894;6.492;2023-03-29T08:01:57;6.90;99.90
60309;DHT22;50313;52.894;6.492;2023-03-29T08:04:40;6.90;99.90
60309;DHT22;50313;52.894;6.492;2023-03-29T08:07:09;7.10;99.90
60309;DHT22;50313;52.894;6.492;2023-03-29T08:09:56;7.10;99.90
60309;DHT22;50313;52.894;6.492;2023-03-29T08:22:04;7.40;99.90
60309;DHT22;50313;52.894;6.492;2023-03-29T08:25:05;7.50;99.90
60309;DHT22;50313;52.894;6.492;2023-03-29T08:28:41;7.70;99.90
60309;DHT22;50313;52.894;6.492;2023-03-29T08:31:08;7.80;99.90
60309;DHT22;50313;52.894;6.492;2023-03-29T08:34:56;7.90;99.90
60309;DHT22;50313;52.894;6.492;2023-03-29T08:37:43;7.90;99.90
60309;DHT22;50313;52.894;6.492;2023-03-29T08:43:57;8.20;99.90
60309;DHT22;50313;52.894;6.492;2023-03-29T08:46:54;8.10;99.90
60309;DHT22;50313;52.894;6.492;2023-03-29T08:49:46;8.20;99.90
60309;DHT22;50313;52.894;6.492;2023-03-29T08:52:53;8.30;99.90
60309;DHT22;50313;52.894;6.492;2023-03-29T08:59:11;8.40;99.90
60309;DHT22;50313;52.894;6.492;2023-03-29T09:01:56;8.50;99.90
60309;DHT22;50313;52.894;6.492;2023-03-29T09:04:49;8.40;99.90
60309;DHT22;50313;52.894;6.492;2023-03-29T09:07:31;8.70;99.90
60309;DHT22;50313;52.894;6.492;2023-03-29T09:10:29;8.90;99.90
60309;DHT22;50313;52.894;6.492;2023-03-29T09:13:34;9.00;99.90
60309;DHT22;50313;52.894;6.492;2023-03-29T09:23:33;9.10;99.90
60309;DHT22;50313;52.894;6.492;2023-03-29T09:32:46;9.40;99.90
60309;DHT22;50313;52.894;6.492;2023-03-29T09:35:42;9.40;99.90
60309;DHT22;50313;52.894;6.492;2023-03-29T09:38:35;9.50;99.90
60309;DHT22;50313;52.894;6.492;2023-03-29T09:54:19;9.60;99.90
60309;DHT22;50313;52.894;6.492;2023-03-29T09:57:19;9.70;99.90
60309;DHT22;50313;52.894;6.492;2023-03-29T09:59:51;9.80;99.90
60309;DHT22;50313;52.894;6.492;2023-03-29T10:06:32;10.10;99.90
60309;DHT22;50313;52.894;6.492;2023-03-29T10:09:27;9.90;99.90
60309;DHT22;50313;52.894;6.492;2023-03-29T10:12:16;10.00;99.90
60309;DHT22;50313;52.894;6.492;2023-03-29T10:15:28;10.10;99.90
60309;DHT22;50313;52.894;6.492;2023-03-29T10:18:59;10.20;99.90
60309;DHT22;50313;52.894;6.492;2023-03-29T10:28:42;10.40;99.90
60309;DHT22;50313;52.894;6.492;2023-03-29T10:31:20;10.40;99.90
60309;DHT22;50313;52.894;6.492;2023-03-29T10:37:07;10.50;99.90
60309;DHT22;50313;52.894;6.492;2023-03-29T10:40:14;10.70;99.90
60309;DHT22;50313;52.894;6.492;2023-03-29T10:46:05;10.90;99.90
60309;DHT22;50313;52.894;6.492;2023-03-29T10:49:25;11.00;99.90
60309;DHT22;50313;52.894;6.492;2023-03-29T10:52:20;11.30;99.90
60309;DHT22;50313;52.894;6.492;2023-03-29T10:54:57;11.30;99.90
60309;DHT22;50313;52.894;6.492;2023-03-29T10:58:24;11.20;99.90
60309;DHT22;50313;52.894;6.492;2023-03-29T11:01:31;11.40;99.90
60309;DHT22;50313;52.894;6.492;2023-03-29T11:12:06;11.90;99.90
60309;DHT22;50313;52.894;6.492;2023-03-29T11:35:15;12.30;99.90
60309;DHT22;50313;52.894;6.492;2023-03-29T11:39:02;12.40;99.90
60309;DHT22;50313;52.894;6.492;2023-03-29T11:42:23;12.70;99.90
60309;DHT22;50313;52.894;6.492;2023-03-29T11:48:41;12.90;99.90
60309;DHT22;50313;52.894;6.492;2023-03-29T11:55:16;12.80;99.90
60309;DHT22;50313;52.894;6.492;2023-03-29T12:15:03;13.80;99.90
60309;DHT22;50313;52.894;6.492;2023-03-29T12:21:32;13.50;99.90
60309;DHT22;50313;52.894;6.492;2023-03-29T12:28:24;13.40;99.90
60309;DHT22;50313;52.894;6.492;2023-03-29T12:41:38;13.40;99.90
60309;DHT22;50313;52.894;6.492;2023-03-29T12:48:36;13.30;99.90
60309;DHT22;50313;52.894;6.492;2023-03-29T12:55:21;13.40;99.90
60309;DHT22;50313;52.894;6.492;2023-03-29T13:04:54;13.70;99.90
60309;DHT22;50313;52.894;6.492;2023-03-29T13:07:46;13.60;99.90
60309;DHT22;50313;52.894;6.492;2023-03-29T13:13:51;13.50;99.90
60309;DHT22;50313;52.894;6.492;2023-03-29T13:16:47;13.80;99.90
60309;DHT22;50313;52.894;6.492;2023-03-29T13:35:33;13.80;99.90
60309;DHT22;50313;52.894;6.492;2023-03-29T13:38:51;13.80;99.90
60309;DHT22;50313;52.894;6.492;2023-03-29T14:01:38;14.40;99.90
60309;DHT22;50313;52.894;6.492;2023-03-29T14:04:50;14.50;99.90
60309;DHT22;50313;52.894;6.492;2023-03-29T14:10:55;14.00;99.90
60309;DHT22;50313;52.894;6.492;2023-03-29T14:13:23;13.70;99.90
60309;DHT22;50313;52.894;6.492;2023-03-29T14:16:17;13.50;99.90
60309;DHT22;50313;52.894;6.492;2023-03-29T14:28:51;13.40;99.90
60309;DHT22;50313;52.894;6.492;2023-03-29T14:31:35;13.40;99.90
60309;DHT22;50313;52.894;6.492;2023-03-29T14:34:21;13.40;99.90
60309;DHT22;50313;52.894;6.492;2023-03-29T14:37:03;13.50;99.90
60309;DHT22;50313;52.894;6.492;2023-03-29T14:39:38;13.80;99.90
60309;DHT22;50313;52.894;6.492;2023-03-29T14:42:23;14.00;99.90
60309;DHT22;50313;52.894;6.492;2023-03-29T14:45:11;14.20;99.90
60309;DHT22;50313;52.894;6.492;2023-03-29T14:47:44;14.10;99.90
60309;DHT22;50313;52.894;6.492;2023-03-29T14:50:43;14.00;99.90
60309;DHT22;50313;52.894;6.492;2023-03-29T14:53:26;14.00;99.90
60309;DHT22;50313;52.894;6.492;2023-03-29T14:56:15;14.00;99.90
60309;DHT22;50313;52.894;6.492;2023-03-29T14:59:03;14.00;99.90
60309;DHT22;50313;52.894;6.492;2023-03-29T15:01:58;14.10;99.90
60309;DHT22;50313;52.894;6.492;2023-03-29T15:07:15;14.20;99.90
60309;DHT22;50313;52.894;6.492;2023-03-29T15:10:03;14.10;99.90
60309;DHT22;50313;52.894;6.492;2023-03-29T15:12:40;14.00;99.90
60309;DHT22;50313;52.894;6.492;2023-03-29T15:15:12;14.10;99.90
60309;DHT22;50313;52.894;6.492;2023-03-29T15:17:43;13.90;99.90
60309;DHT22;50313;52.894;6.492;2023-03-29T15:22:59;13.60;99.90
60309;DHT22;50313;52.894;6.492;2023-03-29T15:26:21;13.60;99.90
60309;DHT22;50313;52.894;6.492;2023-03-29T15:29:12;13.60;99.90
60309;DHT22;50313;52.894;6.492;2023-03-29T15:31:57;13.60;99.90
60309;DHT22;50313;52.894;6.492;2023-03-29T15:34:31;13.50;99.90
60309;DHT22;50313;52.894;6.492;2023-03-29T15:36:58;13.40;99.90
60309;DHT22;50313;52.894;6.492;2023-03-29T15:39:38;13.30;99.90
60309;DHT22;50313;52.894;6.492;2023-03-29T15:42:08;13.10;99.90
60309;DHT22;50313;52.894;6.492;2023-03-29T15:44:36;13.00;99.90
60309;DHT22;50313;52.894;6.492;2023-03-29T15:47:10;13.00;99.90
60309;DHT22;50313;52.894;6.492;2023-03-29T15:50:06;12.90;99.90
60309;DHT22;50313;52.894;6.492;2023-03-29T15:53:11;12.90;99.90
60309;DHT22;50313;52.894;6.492;2023-03-29T15:56:00;12.90;99.90
60309;DHT22;50313;52.894;6.492;2023-03-29T15:58:56;12.90;99.90
60309;DHT22;50313;52.894;6.492;2023-03-29T16:01:33;12.90;99.90
60309;DHT22;50313;52.894;6.492;2023-03-29T16:04:34;12.80;99.90
60309;DHT22;50313;52.894;6.492;2023-03-29T16:07:00;12.70;99.90
60309;DHT22;50313;52.894;6.492;2023-03-29T16:09:37;12.60;99.90
60309;DHT22;50313;52.894;6.492;2023-03-29T16:12:12;12.60;99.90
60309;DHT22;50313;52.894;6.492;2023-03-29T16:15:08;12.60;99.90
60309;DHT22;50313;52.894;6.492;2023-03-29T16:18:14;12.50;99.90
60309;DHT22;50313;52.894;6.492;2023-03-29T16:20:42;12.50;99.90
60309;DHT22;50313;52.894;6.492;2023-03-29T16:23:11;12.50;99.90
60309;DHT22;50313;52.894;6.492;2023-03-29T16:25:41;12.40;99.90
60309;DHT22;50313;52.894;6.492;2023-03-29T16:28:09;12.30;99.90
60309;DHT22;50313;52.894;6.492;2023-03-29T16:30:39;12.10;99.90
60309;DHT22;50313;52.894;6.492;2023-03-29T16:33:05;12.00;99.90
60309;DHT22;50313;52.894;6.492;2023-03-29T16:35:38;12.00;99.90
60309;DHT22;50313;52.894;6.492;2023-03-29T16:38:05;11.90;99.90
60309;DHT22;50313;52.894;6.492;2023-03-29T16:40:38;11.70;99.90
60309;DHT22;50313;52.894;6.492;2023-03-29T16:43:04;11.70;99.90
60309;DHT22;50313;52.894;6.492;2023-03-29T16:45:30;11.70;99.90
60309;DHT22;50313;52.894;6.492;2023-03-29T16:47:58;11.60;99.90
60309;DHT22;50313;52.894;6.492;2023-03-29T16:50:24;11.60;99.90
60309;DHT22;50313;52.894;6.492;2023-03-29T16:52:52;11.50;99.90
60309;DHT22;50313;52.894;6.492;2023-03-29T16:55:18;11.50;99.90
60309;DHT22;50313;52.894;6.492;2023-03-29T16:57:45;11.40;99.90
60309;DHT22;50313;52.894;6.492;2023-03-29T17:00:13;11.40;99.90
60309;DHT22;50313;52.894;6.492;2023-03-29T17:02:43;11.40;99.90
60309;DHT22;50313;52.894;6.492;2023-03-29T17:05:25;11.30;99.90
60309;DHT22;50313;52.894;6.492;2023-03-29T17:07:50;11.30;99.90
60309;DHT22;50313;52.894;6.492;2023-03-29T17:10:16;11.30;99.90
60309;DHT22;50313;52.894;6.492;2023-03-29T17:12:54;11.30;99.90
60309;DHT22;50313;52.894;6.492;2023-03-29T17:15:20;11.30;99.90
60309;DHT22;50313;52.894;6.492;2023-03-29T17:17:46;11.20;99.90
60309;DHT22;50313;52.894;6.492;2023-03-29T17:20:12;11.20;99.90
60309;DHT22;50313;52.894;6.492;2023-03-29T17:22:42;11.20;99.90
60309;DHT22;50313;52.894;6.492;2023-03-29T17:25:15;11.20;99.90
60309;DHT22;50313;52.894;6.492;2023-03-29T17:27:41;11.20;99.90
60309;DHT22;50313;52.894;6.492;2023-03-29T17:30:07;11.20;99.90
60309;DHT22;50313;52.894;6.492;2023-03-29T17:32:36;11.10;99.90
60309;DHT22;50313;52.894;6.492;2023-03-29T17:35:02;11.10;99.90
60309;DHT22;50313;52.894;6.492;2023-03-29T17:37:28;11.10;99.90
60309;DHT22;50313;52.894;6.492;2023-03-29T17:39:56;11.10;99.90
60309;DHT22;50313;52.894;6.492;2023-03-29T17:42:25;11.10;99.90
60309;DHT22;50313;52.894;6.492;2023-03-29T17:44:51;11.10;99.90
60309;DHT22;50313;52.894;6.492;2023-03-29T17:47:20;11.10;99.90
60309;DHT22;50313;52.894;6.492;2023-03-29T17:49:45;11.00;99.90
60309;DHT22;50313;52.894;6.492;2023-03-29T17:52:17;11.00;99.90
60309;DHT22;50313;52.894;6.492;2023-03-29T17:54:43;11.00;99.90
60309;DHT22;50313;52.894;6.492;2023-03-29T17:57:17;10.90;99.90
60309;DHT22;50313;52.894;6.492;2023-03-29T17:59:50;10.90;99.90
60309;DHT22;50313;52.894;6.492;2023-03-29T18:02:18;10.90;99.90
60309;DHT22;50313;52.894;6.492;2023-03-29T18:04:44;10.90;99.90
60309;DHT22;50313;52.894;6.492;2023-03-29T18:07:13;10.90;99.90
60309;DHT22;50313;52.894;6.492;2023-03-29T18:09:39;10.80;99.90
60309;DHT22;50313;52.894;6.492;2023-03-29T18:12:05;10.90;99.90
60309;DHT22;50313;52.894;6.492;2023-03-29T18:14:36;10.80;99.90
60309;DHT22;50313;52.894;6.492;2023-03-29T18:17:04;10.80;99.90
60309;DHT22;50313;52.894;6.492;2023-03-29T18:19:30;10.80;99.90
60309;DHT22;50313;52.894;6.492;2023-03-29T18:21:56;10.90;99.90
60309;DHT22;50313;52.894;6.492;2023-03-29T18:24:25;10.80;99.90
60309;DHT22;50313;52.894;6.492;2023-03-29T18:26:50;10.80;99.90
60309;DHT22;50313;52.894;6.492;2023-03-29T18:29:16;10.80;99.90
60309;DHT22;50313;52.894;6.492;2023-03-29T18:32:11;10.80;99.90
60309;DHT22;50313;52.894;6.492;2023-03-29T18:34:39;10.80;99.90
60309;DHT22;50313;52.894;6.492;2023-03-29T18:37:05;10.80;99.90
60309;DHT22;50313;52.894;6.492;2023-03-29T18:39:43;10.80;99.90
60309;DHT22;50313;52.894;6.492;2023-03-29T18:42:19;10.80;99.90
60309;DHT22;50313;52.894;6.492;2023-03-29T18:44:48;10.80;99.90
60309;DHT22;50313;52.894;6.492;2023-03-29T18:47:19;10.90;99.90
60309;DHT22;50313;52.894;6.492;2023-03-29T18:50:13;10.90;99.90
60309;DHT22;50313;52.894;6.492;2023-03-29T18:52:42;10.70;99.90
60309;DHT22;50313;52.894;6.492;2023-03-29T18:55:10;10.80;99.90
60309;DHT22;50313;52.894;6.492;2023-03-29T18:57:36;10.80;99.90
60309;DHT22;50313;52.894;6.492;2023-03-29T19:00:05;10.70;99.90
60309;DHT22;50313;52.894;6.492;2023-03-29T19:02:37;10.80;99.90
60309;DHT22;50313;52.894;6.492;2023-03-29T19:05:09;10.70;99.90
60309;DHT22;50313;52.894;6.492;2023-03-29T19:07:39;10.70;99.90
60309;DHT22;50313;52.894;6.492;2023-03-29T19:10:07;10.70;99.90
60309;DHT22;50313;52.894;6.492;2023-03-29T19:12:38;10.70;99.90
60309;DHT22;50313;52.894;6.492;2023-03-29T19:15:14;10.70;99.90
60309;DHT22;50313;52.894;6.492;2023-03-29T19:17:42;10.70;99.90
60309;DHT22;50313;52.894;6.492;2023-03-29T19:20:14;10.70;99.90
60309;DHT22;50313;52.894;6.492;2023-03-29T19:22:43;10.60;99.90
60309;DHT22;50313;52.894;6.492;2023-03-29T19:25:11;10.60;99.90
60309;DHT22;50313;52.894;6.492;2023-03-29T19:27:37;10.70;99.90
60309;DHT22;50313;52.894;6.492;2023-03-29T19:30:04;10.70;99.90
60309;DHT22;50313;52.894;6.492;2023-03-29T19:32:32;10.70;99.90
60309;DHT22;50313;52.894;6.492;2023-03-29T19:34:58;10.70;99.90
60309;DHT22;50313;52.894;6.492;2023-03-29T19:37:33;10.60;99.90
60309;DHT22;50313;52.894;6.492;2023-03-29T19:39:59;10.70;99.90
60309;DHT22;50313;52.894;6.492;2023-03-29T19:42:25;10.70;99.90
60309;DHT22;50313;52.894;6.492;2023-03-29T19:44:53;10.60;99.90
60309;DHT22;50313;52.894;6.492;2023-03-29T19:47:21;10.70;99.90
60309;DHT22;50313;52.894;6.492;2023-03-29T19:49:47;10.70;99.90
60309;DHT22;50313;52.894;6.492;2023-03-29T19:52:23;10.70;99.90
60309;DHT22;50313;52.894;6.492;2023-03-29T19:54:56;10.60;99.90
60309;DHT22;50313;52.894;6.492;2023-03-29T19:57:31;10.70;99.90
60309;DHT22;50313;52.894;6.492;2023-03-29T19:59:57;10.70;99.90
60309;DHT22;50313;52.894;6.492;2023-03-29T20:02:33;10.70;99.90
60309;DHT22;50313;52.894;6.492;2023-03-29T20:04:59;10.70;99.90
60309;DHT22;50313;52.894;6.492;2023-03-29T20:07:26;10.70;99.90
60309;DHT22;50313;52.894;6.492;2023-03-29T20:09:57;10.60;99.90
60309;DHT22;50313;52.894;6.492;2023-03-29T20:12:23;10.60;99.90
60309;DHT22;50313;52.894;6.492;2023-03-29T20:14:49;10.60;99.90
60309;DHT22;50313;52.894;6.492;2023-03-29T20:17:15;10.60;99.90
60309;DHT22;50313;52.894;6.492;2023-03-29T20:19:41;10.60;99.90
60309;DHT22;50313;52.894;6.492;2023-03-29T20:22:11;10.60;99.90
60309;DHT22;50313;52.894;6.492;2023-03-29T20:24:39;10.60;99.90
60309;DHT22;50313;52.894;6.492;2023-03-29T20:27:08;10.60;99.90
60309;DHT22;50313;52.894;6.492;2023-03-29T20:29:37;10.60;99.90
60309;DHT22;50313;52.894;6.492;2023-03-29T20:32:05;10.50;99.90
60309;DHT22;50313;52.894;6.492;2023-03-29T20:34:58;10.50;99.90
60309;DHT22;50313;52.894;6.492;2023-03-29T20:37:27;10.50;99.90
60309;DHT22;50313;52.894;6.492;2023-03-29T20:39:53;10.50;99.90
60309;DHT22;50313;52.894;6.492;2023-03-29T20:42:21;10.50;99.90
60309;DHT22;50313;52.894;6.492;2023-03-29T20:44:50;10.50;99.90
60309;DHT22;50313;52.894;6.492;2023-03-29T20:47:19;10.50;99.90
60309;DHT22;50313;52.894;6.492;2023-03-29T20:49:45;10.50;99.90
60309;DHT22;50313;52.894;6.492;2023-03-29T20:52:13;10.50;99.90
60309;DHT22;50313;52.894;6.492;2023-03-29T20:54:46;10.50;99.90
60309;DHT22;50313;52.894;6.492;2023-03-29T20:57:17;10.50;99.90
60309;DHT22;50313;52.894;6.492;2023-03-29T20:59:49;10.40;99.90
60309;DHT22;50313;52.894;6.492;2023-03-29T21:02:21;10.40;99.90
60309;DHT22;50313;52.894;6.492;2023-03-29T21:04:51;10.40;99.90
60309;DHT22;50313;52.894;6.492;2023-03-29T21:07:17;10.30;99.90
60309;DHT22;50313;52.894;6.492;2023-03-29T21:09:47;10.30;99.90
60309;DHT22;50313;52.894;6.492;2023-03-29T21:12:15;10.30;99.90
60309;DHT22;50313;52.894;6.492;2023-03-29T21:14:50;10.30;99.90
60309;DHT22;50313;52.894;6.492;2023-03-29T21:17:23;10.30;99.90
60309;DHT22;50313;52.894;6.492;2023-03-29T21:19:52;10.30;99.90
60309;DHT22;50313;52.894;6.492;2023-03-29T21:22:30;10.30;99.90
60309;DHT22;50313;52.894;6.492;2023-03-29T21:25:06;10.30;99.90
60309;DHT22;50313;52.894;6.492;2023-03-29T21:30:56;10.40;99.90
60309;DHT22;50313;52.894;6.492;2023-03-29T21:33:27;10.30;99.90
60309;DHT22;50313;52.894;6.492;2023-03-29T21:35:57;10.30;99.90
60309;DHT22;50313;52.894;6.492;2023-03-29T21:38:42;10.30;99.90